sensor_id;sensor_type;location;lat;lon;timestamp;P1;durP1;ratioP1;P2;durP2;ratioP2
54899;SDS011;40801;41.924;25.562;2023-03-03T00:00:44;31.05;;;25.83;;
54899;SDS011;40801;41.924;25.562;2023-03-03T00:03:11;29.58;;;23.15;;
54899;SDS011;40801;41.924;25.562;2023-03-03T00:05:40;35.70;;;27.70;;
54899;SDS011;40801;41.924;25.562;2023-03-03T00:08:06;32.63;;;26.38;;
54899;SDS011;40801;41.924;25.562;2023-03-03T00:10:32;31.00;;;23.88;;
54899;SDS011;40801;41.924;25.562;2023-03-03T00:12:57;27.55;;;24.55;;
54899;SDS011;40801;41.924;25.562;2023-03-03T00:15:24;28.35;;;24.38;;
54899;SDS011;40801;41.924;25.562;2023-03-03T00:17:50;29.58;;;23.00;;
54899;SDS011;40801;41.924;25.562;2023-03-03T00:23:19;29.88;;;22.90;;
54899;SDS011;40801;41.924;25.562;2023-03-03T00:25:43;27.48;;;22.23;;
54899;SDS011;40801;41.924;25.562;2023-03-03T00:30:47;28.02;;;22.55;;
54899;SDS011;40801;41.924;25.562;2023-03-03T00:33:18;27.92;;;22.38;;
54899;SDS011;40801;41.924;25.562;2023-03-03T00:35:52;31.40;;;26.08;;
54899;SDS011;40801;41.924;25.562;2023-03-03T00:38:17;29.55;;;23.27;;
54899;SDS011;40801;41.924;25.562;2023-03-03T00:40:43;28.48;;;22.65;;
54899;SDS011;40801;41.924;25.562;2023-03-03T00:43:19;33.75;;;24.38;;
54899;SDS011;40801;41.924;25.562;2023-03-03T00:50:42;27.13;;;23.90;;
54899;SDS011;40801;41.924;25.562;2023-03-03T00:53:12;29.50;;;24.23;;
54899;SDS011;40801;41.924;25.562;2023-03-03T00:55:41;26.05;;;21.45;;
54899;SDS011;40801;41.924;25.562;2023-03-03T00:58:06;24.88;;;21.52;;
54899;SDS011;40801;41.924;25.562;2023-03-03T01:00:32;30.00;;;23.35;;
54899;SDS011;40801;41.924;25.562;2023-03-03T01:02:59;23.58;;;19.67;;
54899;SDS011;40801;41.924;25.562;2023-03-03T01:05:30;30.02;;;22.27;;
54899;SDS011;40801;41.924;25.562;2023-03-03T01:07:56;28.00;;;21.83;;
54899;SDS011;40801;41.924;25.562;2023-03-03T01:10:21;26.13;;;22.77;;
54899;SDS011;40801;41.924;25.562;2023-03-03T01:12:47;28.13;;;22.45;;
54899;SDS011;40801;41.924;25.562;2023-03-03T01:15:14;24.13;;;21.15;;
54899;SDS011;40801;41.924;25.562;2023-03-03T01:17:40;27.58;;;21.50;;
54899;SDS011;40801;41.924;25.562;2023-03-03T01:20:07;24.73;;;20.08;;
54899;SDS011;40801;41.924;25.562;2023-03-03T01:22:34;24.88;;;19.88;;
54899;SDS011;40801;41.924;25.562;2023-03-03T01:24:59;23.73;;;21.17;;
54899;SDS011;40801;41.924;25.562;2023-03-03T01:27:24;31.65;;;21.60;;
54899;SDS011;40801;41.924;25.562;2023-03-03T01:29:51;32.28;;;26.33;;
54899;SDS011;40801;41.924;25.562;2023-03-03T01:32:17;25.98;;;21.00;;
54899;SDS011;40801;41.924;25.562;2023-03-03T01:34:42;25.05;;;21.90;;
54899;SDS011;40801;41.924;25.562;2023-03-03T01:37:07;27.13;;;21.17;;
54899;SDS011;40801;41.924;25.562;2023-03-03T01:39:33;25.30;;;19.98;;
54899;SDS011;40801;41.924;25.562;2023-03-03T01:41:58;27.15;;;21.80;;
54899;SDS011;40801;41.924;25.562;2023-03-03T01:44:24;27.52;;;21.30;;
54899;SDS011;40801;41.924;25.562;2023-03-03T01:46:53;24.73;;;22.02;;
54899;SDS011;40801;41.924;25.562;2023-03-03T01:49:33;26.98;;;21.20;;
54899;SDS011;40801;41.924;25.562;2023-03-03T01:52:30;27.02;;;22.23;;
54899;SDS011;40801;41.924;25.562;2023-03-03T01:54:57;24.48;;;21.05;;
54899;SDS011;40801;41.924;25.562;2023-03-03T01:57:32;24.95;;;19.35;;
54899;SDS011;40801;41.924;25.562;2023-03-03T02:00:02;20.95;;;18.67;;
54899;SDS011;40801;41.924;25.562;2023-03-03T02:02:29;20.75;;;18.50;;
54899;SDS011;40801;41.924;25.562;2023-03-03T02:04:56;23.42;;;19.52;;
54899;SDS011;40801;41.924;25.562;2023-03-03T02:07:22;26.35;;;19.80;;
54899;SDS011;40801;41.924;25.562;2023-03-03T02:10:10;23.20;;;18.67;;
54899;SDS011;40801;41.924;25.562;2023-03-03T02:12:40;25.25;;;19.55;;
54899;SDS011;40801;41.924;25.562;2023-03-03T02:15:18;23.58;;;18.50;;
54899;SDS011;40801;41.924;25.562;2023-03-03T02:17:49;25.23;;;20.80;;
54899;SDS011;40801;41.924;25.562;2023-03-03T02:20:31;22.17;;;17.48;;
54899;SDS011;40801;41.924;25.562;2023-03-03T02:28:26;23.90;;;19.75;;
54899;SDS011;40801;41.924;25.562;2023-03-03T02:30:53;23.58;;;19.67;;
54899;SDS011;40801;41.924;25.562;2023-03-03T02:33:20;26.05;;;20.13;;
54899;SDS011;40801;41.924;25.562;2023-03-03T02:35:46;21.30;;;19.00;;
54899;SDS011;40801;41.924;25.562;2023-03-03T02:38:20;26.15;;;20.80;;
54899;SDS011;40801;41.924;25.562;2023-03-03T02:43:29;25.73;;;21.15;;
54899;SDS011;40801;41.924;25.562;2023-03-03T02:46:00;28.88;;;21.15;;
54899;SDS011;40801;41.924;25.562;2023-03-03T02:48:25;26.85;;;21.05;;
54899;SDS011;40801;41.924;25.562;2023-03-03T02:50:51;23.40;;;19.60;;
54899;SDS011;40801;41.924;25.562;2023-03-03T02:53:16;23.08;;;19.65;;
54899;SDS011;40801;41.924;25.562;2023-03-03T02:55:41;24.35;;;18.73;;
54899;SDS011;40801;41.924;25.562;2023-03-03T02:58:07;24.35;;;20.05;;
54899;SDS011;40801;41.924;25.562;2023-03-03T03:00:32;23.95;;;19.85;;
54899;SDS011;40801;41.924;25.562;2023-03-03T03:02:58;26.30;;;20.13;;
54899;SDS011;40801;41.924;25.562;2023-03-03T03:05:23;26.17;;;21.15;;
54899;SDS011;40801;41.924;25.562;2023-03-03T03:07:48;28.92;;;20.52;;
54899;SDS011;40801;41.924;25.562;2023-03-03T03:10:14;25.80;;;21.30;;
54899;SDS011;40801;41.924;25.562;2023-03-03T03:12:39;28.48;;;22.67;;
54899;SDS011;40801;41.924;25.562;2023-03-03T03:15:05;26.08;;;21.52;;
54899;SDS011;40801;41.924;25.562;2023-03-03T03:17:33;25.67;;;21.48;;
54899;SDS011;40801;41.924;25.562;2023-03-03T03:20:00;26.52;;;22.48;;
54899;SDS011;40801;41.924;25.562;2023-03-03T03:22:26;25.65;;;22.52;;
54899;SDS011;40801;41.924;25.562;2023-03-03T03:24:51;25.50;;;20.95;;
54899;SDS011;40801;41.924;25.562;2023-03-03T03:27:16;26.73;;;20.63;;
54899;SDS011;40801;41.924;25.562;2023-03-03T03:29:43;24.77;;;21.08;;
54899;SDS011;40801;41.924;25.562;2023-03-03T03:32:08;26.65;;;21.40;;
54899;SDS011;40801;41.924;25.562;2023-03-03T03:34:34;25.52;;;20.92;;
54899;SDS011;40801;41.924;25.562;2023-03-03T03:36:59;27.13;;;20.35;;
54899;SDS011;40801;41.924;25.562;2023-03-03T03:39:25;27.25;;;20.73;;
54899;SDS011;40801;41.924;25.562;2023-03-03T03:41:50;22.55;;;19.38;;
54899;SDS011;40801;41.924;25.562;2023-03-03T03:44:15;25.60;;;20.33;;
54899;SDS011;40801;41.924;25.562;2023-03-03T03:46:41;24.17;;;19.95;;
54899;SDS011;40801;41.924;25.562;2023-03-03T03:49:06;26.42;;;19.33;;
54899;SDS011;40801;41.924;25.562;2023-03-03T03:51:31;24.52;;;20.13;;
54899;SDS011;40801;41.924;25.562;2023-03-03T03:53:59;24.70;;;20.52;;
54899;SDS011;40801;41.924;25.562;2023-03-03T03:56:25;25.27;;;20.20;;
54899;SDS011;40801;41.924;25.562;2023-03-03T03:58:50;27.98;;;21.17;;
54899;SDS011;40801;41.924;25.562;2023-03-03T04:01:21;28.65;;;21.83;;
54899;SDS011;40801;41.924;25.562;2023-03-03T04:03:47;23.65;;;19.80;;
54899;SDS011;40801;41.924;25.562;2023-03-03T04:06:13;23.15;;;19.58;;
54899;SDS011;40801;41.924;25.562;2023-03-03T04:08:39;22.73;;;20.05;;
54899;SDS011;40801;41.924;25.562;2023-03-03T04:11:04;26.35;;;20.52;;
54899;SDS011;40801;41.924;25.562;2023-03-03T04:13:30;25.73;;;19.30;;
54899;SDS011;40801;41.924;25.562;2023-03-03T04:15:59;22.25;;;18.45;;
54899;SDS011;40801;41.924;25.562;2023-03-03T04:18:25;24.10;;;20.13;;
54899;SDS011;40801;41.924;25.562;2023-03-03T04:20:50;24.33;;;21.40;;
54899;SDS011;40801;41.924;25.562;2023-03-03T04:23:18;23.00;;;19.75;;
54899;SDS011;40801;41.924;25.562;2023-03-03T04:25:45;23.15;;;18.13;;
54899;SDS011;40801;41.924;25.562;2023-03-03T04:28:11;23.33;;;18.10;;
54899;SDS011;40801;41.924;25.562;2023-03-03T04:30:36;21.35;;;18.63;;
54899;SDS011;40801;41.924;25.562;2023-03-03T04:33:02;21.63;;;16.90;;
54899;SDS011;40801;41.924;25.562;2023-03-03T04:35:27;20.35;;;16.42;;
54899;SDS011;40801;41.924;25.562;2023-03-03T04:37:53;21.52;;;19.10;;
54899;SDS011;40801;41.924;25.562;2023-03-03T04:40:18;21.52;;;17.75;;
54899;SDS011;40801;41.924;25.562;2023-03-03T04:42:44;25.20;;;20.13;;
54899;SDS011;40801;41.924;25.562;2023-03-03T04:45:09;21.33;;;18.00;;
54899;SDS011;40801;41.924;25.562;2023-03-03T04:47:35;24.13;;;19.50;;
54899;SDS011;40801;41.924;25.562;2023-03-03T04:50:00;26.25;;;19.23;;
54899;SDS011;40801;41.924;25.562;2023-03-03T04:52:26;31.17;;;20.88;;
54899;SDS011;40801;41.924;25.562;2023-03-03T04:54:52;25.85;;;20.13;;
54899;SDS011;40801;41.924;25.562;2023-03-03T04:57:17;25.95;;;19.23;;
54899;SDS011;40801;41.924;25.562;2023-03-03T04:59:43;28.70;;;20.92;;
54899;SDS011;40801;41.924;25.562;2023-03-03T05:02:08;25.02;;;18.08;;
54899;SDS011;40801;41.924;25.562;2023-03-03T05:04:34;24.73;;;19.65;;
54899;SDS011;40801;41.924;25.562;2023-03-03T05:06:59;25.60;;;19.33;;
54899;SDS011;40801;41.924;25.562;2023-03-03T05:09:25;24.02;;;19.17;;
54899;SDS011;40801;41.924;25.562;2023-03-03T05:11:51;25.15;;;20.58;;
54899;SDS011;40801;41.924;25.562;2023-03-03T05:14:16;23.67;;;19.83;;
54899;SDS011;40801;41.924;25.562;2023-03-03T05:16:41;25.52;;;20.63;;
54899;SDS011;40801;41.924;25.562;2023-03-03T05:19:07;25.08;;;20.15;;
54899;SDS011;40801;41.924;25.562;2023-03-03T05:21:32;22.63;;;19.42;;
54899;SDS011;40801;41.924;25.562;2023-03-03T05:23:58;24.30;;;20.85;;
54899;SDS011;40801;41.924;25.562;2023-03-03T05:26:23;26.70;;;21.08;;
54899;SDS011;40801;41.924;25.562;2023-03-03T05:28:49;25.98;;;21.73;;
54899;SDS011;40801;41.924;25.562;2023-03-03T05:31:14;26.83;;;21.48;;
54899;SDS011;40801;41.924;25.562;2023-03-03T05:33:40;22.40;;;20.00;;
54899;SDS011;40801;41.924;25.562;2023-03-03T05:36:05;21.20;;;18.90;;
54899;SDS011;40801;41.924;25.562;2023-03-03T05:38:31;24.33;;;21.30;;
54899;SDS011;40801;41.924;25.562;2023-03-03T05:40:56;25.67;;;19.80;;
54899;SDS011;40801;41.924;25.562;2023-03-03T05:43:22;23.42;;;19.08;;
54899;SDS011;40801;41.924;25.562;2023-03-03T05:45:52;26.67;;;21.85;;
54899;SDS011;40801;41.924;25.562;2023-03-03T05:48:19;28.13;;;22.35;;
54899;SDS011;40801;41.924;25.562;2023-03-03T05:50:45;24.73;;;20.48;;
54899;SDS011;40801;41.924;25.562;2023-03-03T05:53:10;27.48;;;22.40;;
54899;SDS011;40801;41.924;25.562;2023-03-03T05:55:35;25.65;;;20.55;;
54899;SDS011;40801;41.924;25.562;2023-03-03T05:58:01;26.30;;;20.90;;
54899;SDS011;40801;41.924;25.562;2023-03-03T06:00:26;25.42;;;20.70;;
54899;SDS011;40801;41.924;25.562;2023-03-03T06:02:51;25.83;;;21.00;;
54899;SDS011;40801;41.924;25.562;2023-03-03T06:05:17;23.77;;;18.88;;
54899;SDS011;40801;41.924;25.562;2023-03-03T06:07:42;26.35;;;21.90;;
54899;SDS011;40801;41.924;25.562;2023-03-03T06:10:09;29.42;;;24.48;;
54899;SDS011;40801;41.924;25.562;2023-03-03T06:12:35;29.42;;;23.73;;
54899;SDS011;40801;41.924;25.562;2023-03-03T06:15:01;29.10;;;22.05;;
54899;SDS011;40801;41.924;25.562;2023-03-03T06:17:27;30.67;;;24.38;;
54899;SDS011;40801;41.924;25.562;2023-03-03T06:19:52;30.98;;;25.55;;
54899;SDS011;40801;41.924;25.562;2023-03-03T06:22:17;30.45;;;24.45;;
54899;SDS011;40801;41.924;25.562;2023-03-03T06:24:43;33.83;;;25.52;;
54899;SDS011;40801;41.924;25.562;2023-03-03T06:27:08;39.28;;;28.13;;
54899;SDS011;40801;41.924;25.562;2023-03-03T06:29:34;42.05;;;29.52;;
54899;SDS011;40801;41.924;25.562;2023-03-03T06:31:59;33.42;;;25.08;;
54899;SDS011;40801;41.924;25.562;2023-03-03T06:34:25;38.58;;;29.98;;
54899;SDS011;40801;41.924;25.562;2023-03-03T06:36:50;43.80;;;33.78;;
54899;SDS011;40801;41.924;25.562;2023-03-03T06:39:16;48.20;;;36.90;;
54899;SDS011;40801;41.924;25.562;2023-03-03T06:41:41;32.38;;;26.23;;
54899;SDS011;40801;41.924;25.562;2023-03-03T06:44:07;32.22;;;25.85;;
54899;SDS011;40801;41.924;25.562;2023-03-03T06:46:32;30.88;;;27.05;;
54899;SDS011;40801;41.924;25.562;2023-03-03T06:48:58;28.42;;;22.80;;
54899;SDS011;40801;41.924;25.562;2023-03-03T06:51:24;32.20;;;27.63;;
54899;SDS011;40801;41.924;25.562;2023-03-03T06:53:54;33.17;;;25.17;;
54899;SDS011;40801;41.924;25.562;2023-03-03T06:56:21;41.08;;;30.30;;
54899;SDS011;40801;41.924;25.562;2023-03-03T06:58:48;36.13;;;28.05;;
54899;SDS011;40801;41.924;25.562;2023-03-03T07:01:17;27.70;;;22.65;;
54899;SDS011;40801;41.924;25.562;2023-03-03T07:03:42;28.15;;;22.52;;
54899;SDS011;40801;41.924;25.562;2023-03-03T07:06:26;32.55;;;24.65;;
54899;SDS011;40801;41.924;25.562;2023-03-03T07:08:52;32.88;;;22.95;;
54899;SDS011;40801;41.924;25.562;2023-03-03T07:11:20;34.95;;;26.15;;
54899;SDS011;40801;41.924;25.562;2023-03-03T07:13:47;33.28;;;26.88;;
54899;SDS011;40801;41.924;25.562;2023-03-03T07:16:18;42.58;;;30.95;;
54899;SDS011;40801;41.924;25.562;2023-03-03T07:18:53;54.88;;;35.75;;
54899;SDS011;40801;41.924;25.562;2023-03-03T07:21:30;41.13;;;30.08;;
54899;SDS011;40801;41.924;25.562;2023-03-03T07:23:58;39.22;;;28.17;;
54899;SDS011;40801;41.924;25.562;2023-03-03T07:26:26;41.60;;;26.80;;
54899;SDS011;40801;41.924;25.562;2023-03-03T07:33:56;56.15;;;39.35;;
54899;SDS011;40801;41.924;25.562;2023-03-03T07:36:26;40.80;;;30.08;;
54899;SDS011;40801;41.924;25.562;2023-03-03T07:38:54;38.33;;;27.50;;
54899;SDS011;40801;41.924;25.562;2023-03-03T07:41:22;36.92;;;28.08;;
54899;SDS011;40801;41.924;25.562;2023-03-03T07:43:49;42.50;;;29.75;;
54899;SDS011;40801;41.924;25.562;2023-03-03T07:46:21;43.38;;;31.55;;
54899;SDS011;40801;41.924;25.562;2023-03-03T07:48:51;40.88;;;28.33;;
54899;SDS011;40801;41.924;25.562;2023-03-03T07:53:49;43.28;;;30.45;;
54899;SDS011;40801;41.924;25.562;2023-03-03T07:56:29;44.55;;;29.88;;
54899;SDS011;40801;41.924;25.562;2023-03-03T07:58:59;50.60;;;34.13;;
54899;SDS011;40801;41.924;25.562;2023-03-03T08:01:40;47.00;;;32.75;;
54899;SDS011;40801;41.924;25.562;2023-03-03T08:04:18;46.15;;;32.40;;
54899;SDS011;40801;41.924;25.562;2023-03-03T08:06:52;47.67;;;31.15;;
54899;SDS011;40801;41.924;25.562;2023-03-03T08:09:43;51.25;;;34.70;;
54899;SDS011;40801;41.924;25.562;2023-03-03T08:12:28;54.10;;;33.92;;
54899;SDS011;40801;41.924;25.562;2023-03-03T08:15:10;49.38;;;33.75;;
54899;SDS011;40801;41.924;25.562;2023-03-03T08:17:42;56.78;;;37.17;;
54899;SDS011;40801;41.924;25.562;2023-03-03T08:23:10;48.95;;;32.83;;
54899;SDS011;40801;41.924;25.562;2023-03-03T08:25:36;51.60;;;34.70;;
54899;SDS011;40801;41.924;25.562;2023-03-03T08:28:02;58.97;;;38.75;;
54899;SDS011;40801;41.924;25.562;2023-03-03T08:30:28;59.28;;;37.97;;
54899;SDS011;40801;41.924;25.562;2023-03-03T08:32:53;62.15;;;38.03;;
54899;SDS011;40801;41.924;25.562;2023-03-03T08:35:18;59.53;;;39.80;;
54899;SDS011;40801;41.924;25.562;2023-03-03T08:37:44;61.78;;;37.40;;
54899;SDS011;40801;41.924;25.562;2023-03-03T08:40:09;58.65;;;36.03;;
54899;SDS011;40801;41.924;25.562;2023-03-03T08:42:35;54.05;;;38.05;;
54899;SDS011;40801;41.924;25.562;2023-03-03T08:45:00;52.50;;;36.65;;
54899;SDS011;40801;41.924;25.562;2023-03-03T08:47:26;46.17;;;32.90;;
54899;SDS011;40801;41.924;25.562;2023-03-03T08:49:51;52.75;;;35.47;;
54899;SDS011;40801;41.924;25.562;2023-03-03T08:52:18;47.50;;;33.72;;
54899;SDS011;40801;41.924;25.562;2023-03-03T08:54:44;50.08;;;37.13;;
54899;SDS011;40801;41.924;25.562;2023-03-03T08:57:09;44.92;;;33.65;;
54899;SDS011;40801;41.924;25.562;2023-03-03T08:59:34;46.17;;;34.72;;
54899;SDS011;40801;41.924;25.562;2023-03-03T09:02:03;46.88;;;36.20;;
54899;SDS011;40801;41.924;25.562;2023-03-03T09:04:29;47.60;;;35.38;;
54899;SDS011;40801;41.924;25.562;2023-03-03T09:06:55;46.05;;;35.80;;
54899;SDS011;40801;41.924;25.562;2023-03-03T09:09:20;42.50;;;29.85;;
54899;SDS011;40801;41.924;25.562;2023-03-03T09:11:46;44.38;;;33.95;;
54899;SDS011;40801;41.924;25.562;2023-03-03T09:14:12;43.22;;;30.70;;
54899;SDS011;40801;41.924;25.562;2023-03-03T09:16:40;35.92;;;31.65;;
54899;SDS011;40801;41.924;25.562;2023-03-03T09:19:34;33.10;;;26.58;;
54899;SDS011;40801;41.924;25.562;2023-03-03T09:22:02;35.42;;;29.88;;
54899;SDS011;40801;41.924;25.562;2023-03-03T09:24:42;31.80;;;27.70;;
54899;SDS011;40801;41.924;25.562;2023-03-03T09:27:13;34.08;;;27.50;;
54899;SDS011;40801;41.924;25.562;2023-03-03T09:29:56;31.27;;;27.58;;
54899;SDS011;40801;41.924;25.562;2023-03-03T09:34:59;28.98;;;24.92;;
54899;SDS011;40801;41.924;25.562;2023-03-03T09:37:45;31.42;;;25.58;;
54899;SDS011;40801;41.924;25.562;2023-03-03T09:43:03;30.85;;;26.52;;
54899;SDS011;40801;41.924;25.562;2023-03-03T09:45:51;28.13;;;25.13;;
54899;SDS011;40801;41.924;25.562;2023-03-03T09:48:43;26.45;;;22.73;;
54899;SDS011;40801;41.924;25.562;2023-03-03T09:51:36;27.58;;;23.83;;
54899;SDS011;40801;41.924;25.562;2023-03-03T09:56:49;28.38;;;25.15;;
54899;SDS011;40801;41.924;25.562;2023-03-03T10:04:55;31.05;;;27.17;;
54899;SDS011;40801;41.924;25.562;2023-03-03T10:18:16;27.08;;;20.52;;
54899;SDS011;40801;41.924;25.562;2023-03-03T10:21:10;24.17;;;21.63;;
54899;SDS011;40801;41.924;25.562;2023-03-03T10:24:01;26.15;;;23.38;;
54899;SDS011;40801;41.924;25.562;2023-03-03T10:40:31;24.58;;;22.08;;
54899;SDS011;40801;41.924;25.562;2023-03-03T10:54:26;25.00;;;21.70;;
54899;SDS011;40801;41.924;25.562;2023-03-03T10:57:23;24.95;;;21.88;;
54899;SDS011;40801;41.924;25.562;2023-03-03T11:13:52;32.65;;;26.83;;
54899;SDS011;40801;41.924;25.562;2023-03-03T11:24:44;33.58;;;26.45;;
54899;SDS011;40801;41.924;25.562;2023-03-03T11:27:31;27.73;;;22.40;;
54899;SDS011;40801;41.924;25.562;2023-03-03T11:35:56;27.38;;;23.27;;
54899;SDS011;40801;41.924;25.562;2023-03-03T11:39:00;24.98;;;22.35;;
54899;SDS011;40801;41.924;25.562;2023-03-03T11:41:46;28.70;;;25.60;;
54899;SDS011;40801;41.924;25.562;2023-03-03T11:44:37;27.08;;;23.13;;
54899;SDS011;40801;41.924;25.562;2023-03-03T11:47:25;22.95;;;20.15;;
54899;SDS011;40801;41.924;25.562;2023-03-03T11:55:41;22.38;;;19.52;;
54899;SDS011;40801;41.924;25.562;2023-03-03T11:58:13;21.17;;;19.02;;
54899;SDS011;40801;41.924;25.562;2023-03-03T12:09:25;20.00;;;18.10;;
54899;SDS011;40801;41.924;25.562;2023-03-03T12:12:13;18.52;;;16.70;;
54899;SDS011;40801;41.924;25.562;2023-03-03T12:14:56;24.95;;;22.35;;
54899;SDS011;40801;41.924;25.562;2023-03-03T12:20:20;23.23;;;20.77;;
54899;SDS011;40801;41.924;25.562;2023-03-03T12:25:58;35.78;;;31.52;;
54899;SDS011;40801;41.924;25.562;2023-03-03T12:28:36;28.83;;;26.02;;
54899;SDS011;40801;41.924;25.562;2023-03-03T12:42:18;19.13;;;17.33;;
54899;SDS011;40801;41.924;25.562;2023-03-03T13:01:34;15.30;;;13.88;;
54899;SDS011;40801;41.924;25.562;2023-03-03T13:09:34;18.80;;;17.08;;
54899;SDS011;40801;41.924;25.562;2023-03-03T13:30:42;20.08;;;18.05;;
54899;SDS011;40801;41.924;25.562;2023-03-03T13:33:19;24.40;;;20.08;;
54899;SDS011;40801;41.924;25.562;2023-03-03T13:35:57;14.88;;;13.57;;
54899;SDS011;40801;41.924;25.562;2023-03-03T13:38:30;18.92;;;17.08;;
54899;SDS011;40801;41.924;25.562;2023-03-03T13:41:03;23.40;;;21.15;;
54899;SDS011;40801;41.924;25.562;2023-03-03T13:46:41;18.83;;;17.05;;
54899;SDS011;40801;41.924;25.562;2023-03-03T13:52:45;13.93;;;12.73;;
54899;SDS011;40801;41.924;25.562;2023-03-03T13:55:34;14.32;;;13.02;;
54899;SDS011;40801;41.924;25.562;2023-03-03T13:58:24;14.60;;;13.20;;
54899;SDS011;40801;41.924;25.562;2023-03-03T14:01:12;16.40;;;14.88;;
54899;SDS011;40801;41.924;25.562;2023-03-03T14:06:54;13.48;;;12.30;;
54899;SDS011;40801;41.924;25.562;2023-03-03T14:14:57;12.38;;;11.18;;
54899;SDS011;40801;41.924;25.562;2023-03-03T14:20:40;11.30;;;10.20;;
54899;SDS011;40801;41.924;25.562;2023-03-03T14:26:14;12.90;;;11.80;;
54899;SDS011;40801;41.924;25.562;2023-03-03T14:28:41;11.43;;;10.40;;
54899;SDS011;40801;41.924;25.562;2023-03-03T14:36:47;15.80;;;14.40;;
54899;SDS011;40801;41.924;25.562;2023-03-03T14:39:33;15.45;;;14.13;;
54899;SDS011;40801;41.924;25.562;2023-03-03T14:42:02;14.30;;;13.00;;
54899;SDS011;40801;41.924;25.562;2023-03-03T14:44:37;22.10;;;19.75;;
54899;SDS011;40801;41.924;25.562;2023-03-03T14:47:24;15.35;;;13.90;;
54899;SDS011;40801;41.924;25.562;2023-03-03T14:49:54;17.25;;;15.65;;
54899;SDS011;40801;41.924;25.562;2023-03-03T14:52:27;14.13;;;12.85;;
54899;SDS011;40801;41.924;25.562;2023-03-03T14:54:58;13.23;;;12.13;;
54899;SDS011;40801;41.924;25.562;2023-03-03T15:03:00;17.40;;;15.85;;
54899;SDS011;40801;41.924;25.562;2023-03-03T15:05:33;13.05;;;11.90;;
54899;SDS011;40801;41.924;25.562;2023-03-03T15:10:29;16.33;;;14.40;;
54899;SDS011;40801;41.924;25.562;2023-03-03T15:18:23;17.13;;;15.57;;
54899;SDS011;40801;41.924;25.562;2023-03-03T15:23:42;13.13;;;12.02;;
54899;SDS011;40801;41.924;25.562;2023-03-03T15:42:54;15.77;;;14.32;;
54899;SDS011;40801;41.924;25.562;2023-03-03T15:57:21;21.20;;;19.00;;
54899;SDS011;40801;41.924;25.562;2023-03-03T16:02:41;21.50;;;19.45;;
54899;SDS011;40801;41.924;25.562;2023-03-03T16:32:43;19.10;;;17.30;;
54899;SDS011;40801;41.924;25.562;2023-03-03T16:35:25;22.75;;;20.45;;
54899;SDS011;40801;41.924;25.562;2023-03-03T16:38:37;29.58;;;26.45;;
54899;SDS011;40801;41.924;25.562;2023-03-03T16:41:00;28.52;;;25.63;;
54899;SDS011;40801;41.924;25.562;2023-03-03T16:46:04;29.90;;;26.90;;
54899;SDS011;40801;41.924;25.562;2023-03-03T16:48:50;29.05;;;25.98;;
54899;SDS011;40801;41.924;25.562;2023-03-03T16:51:34;23.02;;;20.83;;
54899;SDS011;40801;41.924;25.562;2023-03-03T16:54:17;28.63;;;25.63;;
54899;SDS011;40801;41.924;25.562;2023-03-03T16:59:54;28.35;;;25.42;;
54899;SDS011;40801;41.924;25.562;2023-03-03T17:11:16;31.50;;;28.27;;
54899;SDS011;40801;41.924;25.562;2023-03-03T17:19:33;35.65;;;31.08;;
54899;SDS011;40801;41.924;25.562;2023-03-03T17:25:36;39.53;;;35.55;;
54899;SDS011;40801;41.924;25.562;2023-03-03T17:45:07;57.35;;;51.17;;
54899;SDS011;40801;41.924;25.562;2023-03-03T17:47:23;59.22;;;52.55;;
54899;SDS011;40801;41.924;25.562;2023-03-03T18:13:30;92.45;;;79.32;;
54899;SDS011;40801;41.924;25.562;2023-03-03T18:26:49;78.70;;;69.38;;
54899;SDS011;40801;41.924;25.562;2023-03-03T18:47:58;67.10;;;59.72;;
54899;SDS011;40801;41.924;25.562;2023-03-03T18:53:43;64.25;;;57.42;;
54899;SDS011;40801;41.924;25.562;2023-03-03T18:55:58;76.60;;;67.32;;
54899;SDS011;40801;41.924;25.562;2023-03-03T19:00:51;88.80;;;76.07;;
54899;SDS011;40801;41.924;25.562;2023-03-03T19:03:24;104.47;;;86.72;;
54899;SDS011;40801;41.924;25.562;2023-03-03T19:06:11;80.45;;;69.95;;
54899;SDS011;40801;41.924;25.562;2023-03-03T19:08:54;82.20;;;69.78;;
54899;SDS011;40801;41.924;25.562;2023-03-03T19:16:49;73.38;;;65.43;;
54899;SDS011;40801;41.924;25.562;2023-03-03T19:19:17;65.50;;;58.20;;
54899;SDS011;40801;41.924;25.562;2023-03-03T19:21:51;68.90;;;58.13;;
54899;SDS011;40801;41.924;25.562;2023-03-03T19:25:00;62.92;;;55.88;;
54899;SDS011;40801;41.924;25.562;2023-03-03T19:27:36;70.72;;;58.35;;
54899;SDS011;40801;41.924;25.562;2023-03-03T19:30:33;68.70;;;60.83;;
54899;SDS011;40801;41.924;25.562;2023-03-03T19:38:35;73.50;;;59.45;;
54899;SDS011;40801;41.924;25.562;2023-03-03T19:50:17;63.88;;;52.05;;
54899;SDS011;40801;41.924;25.562;2023-03-03T20:02:04;89.75;;;70.53;;
54899;SDS011;40801;41.924;25.562;2023-03-03T20:07:39;83.38;;;68.18;;
54899;SDS011;40801;41.924;25.562;2023-03-03T20:12:46;64.80;;;52.22;;
54899;SDS011;40801;41.924;25.562;2023-03-03T20:18:22;52.85;;;41.70;;
54899;SDS011;40801;41.924;25.562;2023-03-03T20:29:43;42.08;;;36.45;;
54899;SDS011;40801;41.924;25.562;2023-03-03T20:38:15;49.58;;;40.33;;
54899;SDS011;40801;41.924;25.562;2023-03-03T21:02:07;45.80;;;36.83;;
54899;SDS011;40801;41.924;25.562;2023-03-03T21:04:43;56.13;;;44.03;;
54899;SDS011;40801;41.924;25.562;2023-03-03T21:07:17;48.80;;;42.10;;
54899;SDS011;40801;41.924;25.562;2023-03-03T21:12:27;60.47;;;47.08;;
54899;SDS011;40801;41.924;25.562;2023-03-03T21:15:36;61.25;;;49.38;;
54899;SDS011;40801;41.924;25.562;2023-03-03T21:17:53;65.93;;;52.67;;
54899;SDS011;40801;41.924;25.562;2023-03-03T21:20:24;61.17;;;46.00;;
54899;SDS011;40801;41.924;25.562;2023-03-03T21:22:57;54.13;;;45.25;;
54899;SDS011;40801;41.924;25.562;2023-03-03T21:28:12;56.20;;;45.47;;
54899;SDS011;40801;41.924;25.562;2023-03-03T21:36:55;51.70;;;41.60;;
54899;SDS011;40801;41.924;25.562;2023-03-03T21:39:06;57.92;;;44.35;;
54899;SDS011;40801;41.924;25.562;2023-03-03T21:42:09;77.38;;;56.17;;
54899;SDS011;40801;41.924;25.562;2023-03-03T21:47:14;47.38;;;39.90;;
54899;SDS011;40801;41.924;25.562;2023-03-03T21:49:42;51.22;;;42.35;;
54899;SDS011;40801;41.924;25.562;2023-03-03T21:52:08;49.97;;;42.42;;
54899;SDS011;40801;41.924;25.562;2023-03-03T21:54:35;49.90;;;40.08;;
54899;SDS011;40801;41.924;25.562;2023-03-03T21:57:00;50.88;;;39.33;;
54899;SDS011;40801;41.924;25.562;2023-03-03T21:59:25;62.38;;;48.85;;
54899;SDS011;40801;41.924;25.562;2023-03-03T22:01:51;54.45;;;42.55;;
54899;SDS011;40801;41.924;25.562;2023-03-03T22:04:16;49.75;;;41.03;;
54899;SDS011;40801;41.924;25.562;2023-03-03T22:06:42;46.85;;;38.08;;
54899;SDS011;40801;41.924;25.562;2023-03-03T22:09:08;42.40;;;36.47;;
54899;SDS011;40801;41.924;25.562;2023-03-03T22:11:34;43.08;;;35.08;;
54899;SDS011;40801;41.924;25.562;2023-03-03T22:13:59;45.58;;;36.03;;
54899;SDS011;40801;41.924;25.562;2023-03-03T22:16:25;57.97;;;42.80;;